createdAt,value
2018-05-23T00:03:00.305Z,101070
2018-05-23T00:06:09.960Z,101073
2018-05-23T00:09:21.064Z,101073
2018-05-23T00:12:30.960Z,101074
2018-05-23T00:15:44.856Z,101075
2018-05-23T00:18:54.355Z,101072
2018-05-23T00:22:03.909Z,101074
2018-05-23T00:25:13.477Z,101074
2018-05-23T00:28:23.795Z,101070
2018-05-23T00:31:33.390Z,101065
2018-05-23T00:34:43.696Z,101063
2018-05-23T00:37:53.061Z,101062
2018-05-23T00:41:02.508Z,101063
2018-05-23T00:44:12.050Z,101065
2018-05-23T00:47:21.728Z,101067
2018-05-23T00:50:32.614Z,101065
2018-05-23T00:53:41.891Z,101066
2018-05-23T00:56:54.202Z,101065
2018-05-23T01:00:04.028Z,101069
2018-05-23T01:03:13.411Z,101067
2018-05-23T01:06:25.038Z,101071
2018-05-23T01:09:35.517Z,101062
2018-05-23T01:12:45.004Z,101062
2018-05-23T01:15:54.449Z,101065
2018-05-23T01:19:04.064Z,101064
2018-05-23T01:22:14.780Z,101073
2018-05-23T01:25:26.197Z,101076
2018-05-23T01:28:36.202Z,101079
2018-05-23T01:31:47.096Z,101075
2018-05-23T01:34:56.529Z,101086
2018-05-23T01:38:06.032Z,101088
2018-05-23T01:41:16.392Z,101087
2018-05-23T01:44:27.847Z,101081
2018-05-23T01:47:37.654Z,101077
2018-05-23T01:50:47.169Z,101081
2018-05-23T01:54:01.587Z,101080
2018-05-23T01:57:10.995Z,101077
2018-05-23T02:00:21.328Z,101081
2018-05-23T02:03:30.801Z,101084
2018-05-23T02:06:40.209Z,101087
2018-05-23T02:09:50.409Z,101090
2018-05-23T02:12:59.988Z,101088
2018-05-23T02:16:09.649Z,101084
2018-05-23T02:19:19.031Z,101086
2018-05-23T02:22:29.679Z,101089
2018-05-23T02:25:39.332Z,101091
2018-05-23T02:28:48.903Z,101096
2018-05-23T02:31:59.454Z,101096
2018-05-23T02:35:09.709Z,101100
2018-05-23T02:38:20.050Z,101093
2018-05-23T02:41:30.644Z,101098
2018-05-23T02:44:40.081Z,101100
2018-05-23T02:47:51.254Z,101103
2018-05-23T02:51:01.229Z,101103
2018-05-23T02:54:10.656Z,101103
2018-05-23T02:57:20.280Z,101110
2018-05-23T03:00:31.596Z,101110
2018-05-23T03:03:41.419Z,101109
2018-05-23T03:06:50.869Z,101110
2018-05-23T03:10:00.418Z,101116
2018-05-23T03:13:14.948Z,101114
2018-05-23T03:16:24.329Z,101119
2018-05-23T03:19:33.840Z,101122
2018-05-23T03:22:43.424Z,101128
2018-05-23T03:25:53.772Z,101133
2018-05-23T03:29:03.624Z,101135
2018-05-23T03:32:13.542Z,101136
2018-05-23T03:35:27.330Z,101141
2018-05-23T03:38:38.413Z,101137
2018-05-23T03:41:48.128Z,101142
2018-05-23T03:44:57.754Z,101145
2018-05-23T03:48:07.129Z,101149
2018-05-23T03:51:17.602Z,101155
2018-05-23T03:54:26.906Z,101153
2018-05-23T03:57:41.101Z,101152
2018-05-23T04:01:09.081Z,101150
2018-05-23T04:04:36.220Z,101155
2018-05-23T04:07:45.713Z,101162
2018-05-23T04:10:55.912Z,101159
2018-05-23T04:14:05.674Z,101163
2018-05-23T04:17:15.297Z,101167
2018-05-23T04:20:25.328Z,101169
2018-05-23T04:23:37.206Z,101172
2018-05-23T04:26:49.746Z,101177
2018-05-23T04:29:59.742Z,101174
2018-05-23T04:33:10.359Z,101176
2018-05-23T04:36:20.781Z,101186
2018-05-23T04:39:30.359Z,101182
2018-05-23T04:42:39.816Z,101187
2018-05-23T04:45:49.353Z,101186
2018-05-23T04:48:58.673Z,101194
2018-05-23T04:52:08.193Z,101193
2018-05-23T04:55:19.536Z,101192
2018-05-23T04:58:29.828Z,101195
2018-05-23T05:01:39.214Z,101205
2018-05-23T05:04:48.724Z,101205
2018-05-23T05:07:59.331Z,101211
2018-05-23T05:11:08.923Z,101213
2018-05-23T05:14:18.287Z,101219
2018-05-23T05:17:31.700Z,101225
2018-05-23T05:20:46.160Z,101232
2018-05-23T05:23:55.908Z,101225
2018-05-23T05:27:05.796Z,101230
2018-05-23T05:30:15.746Z,101235
2018-05-23T05:33:25.681Z,101237
2018-05-23T05:36:35.581Z,101241
2018-05-23T05:39:45.108Z,101241
2018-05-23T05:42:56.228Z,101242
2018-05-23T05:46:05.651Z,101247
2018-05-23T05:49:15.800Z,101255
2018-05-23T05:52:29.573Z,101257
2018-05-23T05:55:42.180Z,101265
2018-05-23T05:58:51.984Z,101264
2018-05-23T06:02:01.485Z,101267
2018-05-23T06:05:11.210Z,101270
2018-05-23T06:08:20.720Z,101281
2018-05-23T06:11:30.924Z,101285
2018-05-23T06:14:42.540Z,101286
2018-05-23T06:17:52.485Z,101295
2018-05-23T06:21:01.983Z,101290
2018-05-23T06:24:12.228Z,101292
2018-05-23T06:27:22.333Z,101293
2018-05-23T06:30:34.247Z,101302
2018-05-23T06:33:44.632Z,101301
2018-05-23T06:36:53.854Z,101304
2018-05-23T06:40:04.279Z,101312
2018-05-23T06:43:13.867Z,101309
2018-05-23T06:46:24.029Z,101308
2018-05-23T06:49:34.392Z,101318
2018-05-23T06:52:44.713Z,101316
2018-05-23T06:55:54.989Z,101318
2018-05-23T06:59:05.254Z,101324
2018-05-23T07:02:14.731Z,101326
2018-05-23T07:05:24.187Z,101326
2018-05-23T07:08:34.302Z,101327
2018-05-23T07:11:46.896Z,101327
2018-05-23T07:14:56.436Z,101334
2018-05-23T07:18:06.108Z,101341
2018-05-23T07:21:16.529Z,101344
2018-05-23T07:24:26.017Z,101346
2018-05-23T07:27:36.260Z,101347
2018-05-23T07:30:47.230Z,101342
2018-05-23T07:33:56.777Z,101339
2018-05-23T07:37:06.277Z,101343
2018-05-23T07:40:16.409Z,101344
2018-05-23T07:43:25.815Z,101347
2018-05-23T07:46:35.953Z,101343
2018-05-23T07:49:47.662Z,101343
2018-05-23T07:52:57.093Z,101351
2018-05-23T07:56:06.566Z,101354
2018-05-23T07:59:16.030Z,101354
2018-05-23T08:02:26.358Z,101350
2018-05-23T08:05:36.849Z,101354
2018-05-23T08:08:48.169Z,101350
2018-05-23T08:11:57.728Z,101349
2018-05-23T08:15:07.221Z,101353
2018-05-23T08:18:16.609Z,101356
2018-05-23T08:21:26.881Z,101354
2018-05-23T08:24:36.750Z,101360
2018-05-23T08:27:46.443Z,101363
2018-05-23T08:30:55.726Z,101360
2018-05-23T08:34:05.672Z,101364
2018-05-23T08:37:15.252Z,101363
2018-05-23T08:40:25.361Z,101360
2018-05-23T08:43:35.636Z,101365
2018-05-23T08:46:45.511Z,101368
2018-05-23T08:49:56.088Z,101371
2018-05-23T08:53:05.477Z,101370
2018-05-23T08:56:15.073Z,101369
2018-05-23T08:59:24.529Z,101375
2018-05-23T09:02:34.048Z,101384
2018-05-23T09:05:44.392Z,101380
2018-05-23T09:08:54.308Z,101391
2018-05-23T09:12:03.872Z,101389
2018-05-23T09:15:13.415Z,101390
2018-05-23T09:18:23.681Z,101397
2018-05-23T09:21:33.734Z,101395
2018-05-23T09:24:43.200Z,101402
2018-05-23T09:27:53.478Z,101404
2018-05-23T09:31:02.987Z,101401
2018-05-23T09:34:12.483Z,101406
2018-05-23T09:37:23.098Z,101407
2018-05-23T09:40:33.339Z,101409
2018-05-23T09:43:43.050Z,101403
2018-05-23T09:46:53.467Z,101407
2018-05-23T09:50:03.732Z,101410
2018-05-23T09:53:13.522Z,101410
2018-05-23T09:56:22.989Z,101417
2018-05-23T09:59:32.984Z,101418
2018-05-23T10:02:43.237Z,101418
2018-05-23T10:05:53.960Z,101417
2018-05-23T10:09:07.024Z,101426
2018-05-23T10:12:16.468Z,101435
2018-05-23T10:15:26.036Z,101432
2018-05-23T10:18:35.581Z,101433
2018-05-23T10:21:45.852Z,101437
2018-05-23T10:24:56.084Z,101435
2018-05-23T10:28:05.947Z,101434
2018-05-23T10:31:15.472Z,101438
2018-05-23T10:34:24.949Z,101434
2018-05-23T10:37:34.352Z,101441
2018-05-23T10:40:44.206Z,101442
2018-05-23T10:43:55.920Z,101444
2018-05-23T10:47:06.249Z,101453
2018-05-23T10:50:15.752Z,101455
2018-05-23T10:53:29.335Z,101459
2018-05-23T10:56:38.790Z,101462
2018-05-23T10:59:48.476Z,101462
2018-05-23T11:02:57.989Z,101466
2018-05-23T11:06:07.638Z,101472
2018-05-23T11:09:17.589Z,101459
2018-05-23T11:12:27.951Z,101478
2018-05-23T11:15:38.922Z,101474
2018-05-23T11:18:48.792Z,101480
2018-05-23T11:21:59.033Z,101481
2018-05-23T11:25:12.710Z,101482
2018-05-23T11:28:22.053Z,101483
2018-05-23T11:31:31.628Z,101480
2018-05-23T11:34:41.200Z,101485
2018-05-23T11:37:50.837Z,101482
2018-05-23T11:41:01.522Z,101484
2018-05-23T11:44:10.917Z,101485
2018-05-23T11:47:20.493Z,101486
2018-05-23T11:50:30.389Z,101489
2018-05-23T11:53:41.138Z,101493
2018-05-23T11:56:50.453Z,101491
2018-05-23T12:00:00.709Z,101485
2018-05-23T12:03:10.164Z,101487
2018-05-23T12:06:19.670Z,101485
2018-05-23T12:09:29.149Z,101489
2018-05-23T12:12:38.656Z,101486
2018-05-23T12:15:49.129Z,101482
2018-05-23T12:19:00.357Z,101484
2018-05-23T12:22:09.858Z,101483
2018-05-23T12:25:20.489Z,101494
2018-05-23T12:28:29.925Z,101492
2018-05-23T12:31:39.460Z,101498
2018-05-23T12:34:48.973Z,101488
2018-05-23T12:37:59.393Z,101499
2018-05-23T12:41:08.895Z,101506
2018-05-23T12:44:18.334Z,101499
2018-05-23T12:47:27.959Z,101506
2018-05-23T12:50:37.472Z,101506
2018-05-23T12:53:47.521Z,101508
2018-05-23T12:56:57.801Z,101501
2018-05-23T13:00:08.112Z,101502
2018-05-23T13:03:18.221Z,101497
2018-05-23T13:06:27.583Z,101498
2018-05-23T13:09:36.986Z,101501
2018-05-23T13:12:46.760Z,101500
2018-05-23T13:15:57.033Z,101500
2018-05-23T13:19:06.452Z,101492
2018-05-23T13:22:16.173Z,101454
2018-05-23T13:25:27.295Z,101480
2018-05-23T13:28:41.371Z,101480
2018-05-23T13:31:50.675Z,101476
2018-05-23T13:35:00.159Z,101471
2018-05-23T13:38:09.620Z,101472
2018-05-23T13:41:19.216Z,101469
2018-05-23T13:44:28.849Z,101468
2018-05-23T13:47:39.212Z,101468
2018-05-23T13:50:49.061Z,101463
2018-05-23T13:53:58.932Z,101455
2018-05-23T13:57:08.428Z,101449
2018-05-23T14:00:17.907Z,101444
2018-05-23T14:03:27.398Z,101444
2018-05-23T14:06:36.844Z,101435
2018-05-23T14:09:46.396Z,101421
2018-05-23T14:12:55.852Z,101424
2018-05-23T14:16:07.340Z,101412
2018-05-23T14:19:16.845Z,101426
2018-05-23T14:22:26.221Z,101423
2018-05-23T14:25:35.682Z,101429
2018-05-23T14:28:45.936Z,101419
2018-05-23T14:31:55.374Z,101421
2018-05-23T14:35:05.773Z,101421
2018-05-23T14:38:16.209Z,101421
2018-05-23T14:41:25.519Z,101429
2018-05-23T14:44:34.883Z,101427
2018-05-23T14:47:45.143Z,101433
2018-05-23T14:50:54.794Z,101429
2018-05-23T14:54:04.303Z,101426
2018-05-23T14:57:14.480Z,101433
2018-05-23T15:00:24.005Z,101430
2018-05-23T15:03:34.042Z,101434
2018-05-23T15:06:43.487Z,101424
2018-05-23T15:09:53.161Z,101417
2018-05-23T15:13:02.583Z,101424
2018-05-23T15:16:13.738Z,101424
2018-05-23T15:19:23.509Z,101422
2018-05-23T15:22:33.821Z,101420
2018-05-23T15:25:43.085Z,101423
2018-05-23T15:28:53.059Z,101415
2018-05-23T15:32:02.405Z,101414
2018-05-23T15:35:11.931Z,101419
2018-05-23T15:38:21.411Z,101421
2018-05-23T15:41:31.545Z,101424
2018-05-23T15:44:41.036Z,101414
2018-05-23T15:47:50.565Z,101417
2018-05-23T15:51:01.145Z,101418
2018-05-23T15:54:11.827Z,101413
2018-05-23T15:57:21.473Z,101413
2018-05-23T16:00:31.448Z,101415
2018-05-23T16:03:44.932Z,101413
2018-05-23T16:06:54.339Z,101421
2018-05-23T16:10:03.912Z,101413
2018-05-23T16:13:13.645Z,101421
2018-05-23T16:16:23.220Z,101416
2018-05-23T16:19:32.847Z,101409
2018-05-23T16:22:42.947Z,101409
2018-05-23T16:25:52.553Z,101409
2018-05-23T16:29:02.113Z,101419
2018-05-23T16:32:13.724Z,101406
2018-05-23T16:35:24.046Z,101412
2018-05-23T16:38:33.374Z,101418
2018-05-23T16:41:42.723Z,101409
2018-05-23T16:44:52.096Z,101406
2018-05-23T16:48:01.513Z,101414
2018-05-23T16:51:11.050Z,101412
2018-05-23T16:54:20.991Z,101407
2018-05-23T16:57:30.478Z,101409
2018-05-23T17:00:40.850Z,101413
2018-05-23T17:03:50.602Z,101412
2018-05-23T17:06:59.909Z,101411
2018-05-23T17:10:09.365Z,101411
2018-05-23T17:13:18.786Z,101406
2018-05-23T17:16:28.158Z,101406
2018-05-23T17:19:37.861Z,101417
2018-05-23T17:22:48.201Z,101418
2018-05-23T17:25:58.384Z,101422
2018-05-23T17:29:07.924Z,101421
2018-05-23T17:32:17.792Z,101422
2018-05-23T17:35:28.464Z,101427
2018-05-23T17:38:37.890Z,101426
2018-05-23T17:41:48.137Z,101434
2018-05-23T17:44:57.718Z,101436
2018-05-23T17:48:07.053Z,101447
2018-05-23T17:51:17.933Z,101448
2018-05-23T17:54:28.141Z,101447
2018-05-23T17:57:38.331Z,101455
2018-05-23T18:00:48.586Z,101458
2018-05-23T18:03:57.897Z,101455
2018-05-23T18:07:08.414Z,101458
2018-05-23T18:10:18.552Z,101458
2018-05-23T18:13:28.783Z,101462
2018-05-23T18:16:38.176Z,101455
2018-05-23T18:19:49.283Z,101452
2018-05-23T18:22:59.133Z,101456
2018-05-23T18:26:09.045Z,101453
2018-05-23T18:29:20.075Z,101454
2018-05-23T18:32:29.654Z,101455
2018-05-23T18:35:39.557Z,101456
2018-05-23T18:38:49.627Z,101460
2018-05-23T18:41:58.980Z,101472
2018-05-23T18:45:09.250Z,101476
2018-05-23T18:48:20.773Z,101478
2018-05-23T18:51:30.645Z,101484
2018-05-23T18:54:40.471Z,101481
2018-05-23T18:57:50.790Z,101492
2018-05-23T19:01:01.021Z,101498
2018-05-23T19:04:10.554Z,101504
2018-05-23T19:07:22.733Z,101503
2018-05-23T19:10:32.272Z,101490
2018-05-23T19:13:42.363Z,101518
2018-05-23T19:16:52.089Z,101511
2018-05-23T19:20:02.291Z,101517
2018-05-23T19:23:11.760Z,101525
2018-05-23T19:26:22.779Z,101522
2018-05-23T19:29:32.206Z,101527
2018-05-23T19:32:42.461Z,101529
2018-05-23T19:35:51.951Z,101533
2018-05-23T19:39:01.830Z,101535
2018-05-23T19:42:12.678Z,101539
2018-05-23T19:45:23.828Z,101544
2018-05-23T19:48:34.064Z,101545
2018-05-23T19:51:44.309Z,101549
2018-05-23T19:54:53.871Z,101550
2018-05-23T19:58:03.929Z,101553
2018-05-23T20:01:13.990Z,101558
2018-05-23T20:04:24.717Z,101540
2018-05-23T20:07:34.200Z,101556
2018-05-23T20:10:44.450Z,101561
2018-05-23T20:13:54.812Z,101565
2018-05-23T20:17:05.136Z,101564
2018-05-23T20:20:14.717Z,101568
2018-05-23T20:23:25.904Z,101556
2018-05-23T20:26:35.552Z,101575
2018-05-23T20:29:44.976Z,101571
2018-05-23T20:32:54.779Z,101573
2018-05-23T20:36:05.015Z,101572
2018-05-23T20:39:15.249Z,101574
2018-05-23T20:42:27.054Z,101574
2018-05-23T20:45:36.466Z,101575
2018-05-23T20:48:45.960Z,101576
2018-05-23T20:51:55.581Z,101582
2018-05-23T20:55:05.357Z,101580
2018-05-23T20:58:15.768Z,101578
2018-05-23T21:01:27.809Z,101585
2018-05-23T21:04:37.374Z,101580
2018-05-23T21:07:47.175Z,101585
2018-05-23T21:10:58.368Z,101595
2018-05-23T21:14:08.652Z,101592
2018-05-23T21:17:18.006Z,101598
2018-05-23T21:20:28.950Z,101600
2018-05-23T21:23:38.888Z,101600
2018-05-23T21:26:48.872Z,101597
2018-05-23T21:29:59.054Z,101601
2018-05-23T21:33:09.020Z,101600
2018-05-23T21:36:23.317Z,101601
2018-05-23T21:39:33.513Z,101603
2018-05-23T21:42:43.964Z,101602
2018-05-23T21:45:54.354Z,101606
2018-05-23T21:49:03.693Z,101604
2018-05-23T21:52:13.704Z,101610
2018-05-23T21:55:23.229Z,101609
2018-05-23T21:58:33.507Z,101610
2018-05-23T22:01:42.953Z,101615
2018-05-23T22:04:56.547Z,101608
2018-05-23T22:08:05.969Z,101610
2018-05-23T22:11:15.558Z,101611
2018-05-23T22:14:24.891Z,101608
2018-05-23T22:17:35.057Z,101606
2018-05-23T22:20:44.378Z,101605
2018-05-23T22:23:54.647Z,101601
2018-05-23T22:27:04.171Z,101603
2018-05-23T22:30:13.757Z,101603
2018-05-23T22:33:23.910Z,101607
2018-05-23T22:36:34.213Z,101596
2018-05-23T22:39:43.694Z,101605
2018-05-23T22:42:53.900Z,101603
2018-05-23T22:46:03.486Z,101603
2018-05-23T22:49:13.071Z,101601
2018-05-23T22:52:23.152Z,101604
2018-05-23T22:55:33.989Z,101601
2018-05-23T22:58:43.935Z,101601
2018-05-23T23:01:54.248Z,101602
2018-05-23T23:05:03.951Z,101603
2018-05-23T23:08:14.339Z,101604
2018-05-23T23:11:24.142Z,101606
2018-05-23T23:14:34.406Z,101607
2018-05-23T23:17:44.307Z,101605
2018-05-23T23:20:53.651Z,101606
2018-05-23T23:24:03.428Z,101611
2018-05-23T23:27:13.252Z,101608
2018-05-23T23:30:22.624Z,101607
2018-05-23T23:33:32.452Z,101603
2018-05-23T23:36:42.028Z,101606
2018-05-23T23:39:52.266Z,101608
2018-05-23T23:43:01.733Z,101602
2018-05-23T23:46:12.583Z,101604
2018-05-23T23:49:22.047Z,101611
2018-05-23T23:52:31.318Z,101606
2018-05-23T23:55:42.449Z,101599
2018-05-23T23:58:51.920Z,101599
